Time;durP1;ratioP1;P1;durP2;ratioP2;P2;SDS_P1;SDS_P2;PMS_P1;PMS_P2;Temp;Humidity;BMP_temperature;BMP_pressure;BME280_temperature;BME280_humidity;BME280_pressure;Samples;Min_cycle;Max_cycle;Signal;HPM_P1;HPM_P2
2023/10/18 00:00:36;;;;;;;16.45;10.25;;;10.50;72.90;;;;;;5085764;28;20028;-65
2023/10/18 00:03:02;;;;;;;15.90;11.07;;;10.50;73.00;;;;;;5068150;28;20373;-65
2023/10/18 00:05:29;;;;;;;17.58;10.65;;;10.50;73.00;;;;;;5085211;28;20099;-65
2023/10/18 00:07:59;;;;;;;14.93;9.73;;;10.50;73.00;;;;;;5087402;28;20457;-65
2023/10/18 00:10:27;;;;;;;16.42;9.88;;;10.50;73.00;;;;;;5087143;28;20036;-65
2023/10/18 00:12:55;;;;;;;15.30;9.48;;;10.50;73.00;;;;;;5085614;28;20028;-65
2023/10/18 00:15:21;;;;;;;13.23;8.98;;;10.50;73.00;;;;;;5088312;28;20036;-65
2023/10/18 00:17:48;;;;;;;14.18;9.77;;;10.50;73.00;;;;;;5068221;28;20024;-65
2023/10/18 00:20:15;;;;;;;15.15;9.63;;;10.40;73.00;;;;;;5085488;28;20028;-65
2023/10/18 00:22:43;;;;;;;14.30;9.73;;;10.40;73.00;;;;;;5085066;28;20097;-65
2023/10/18 00:25:12;;;;;;;15.10;10.88;;;10.40;73.00;;;;;;5085726;28;20041;-65
2023/10/18 00:27:39;;;;;;;16.10;10.23;;;10.40;73.00;;;;;;5087093;28;20463;-65
2023/10/18 00:30:11;;;;;;;15.32;10.05;;;10.40;73.00;;;;;;5086088;28;20036;-64
2023/10/18 00:32:38;;;;;;;15.68;10.38;;;10.40;73.10;;;;;;5085846;28;20039;-65
2023/10/18 00:35:22;;;;;;;15.70;10.73;;;10.40;73.10;;;;;;5085694;28;20436;-65
2023/10/18 00:37:55;;;;;;;14.95;9.90;;;10.40;73.00;;;;;;5086513;28;20027;-65
2023/10/18 00:43:10;;;;;;;16.65;9.80;;;10.30;73.00;;;;;;5087151;28;21387;-65
2023/10/18 00:45:43;;;;;;;14.70;10.07;;;10.30;73.20;;;;;;5077369;28;20119;-65
2023/10/18 00:48:11;;;;;;;16.48;10.07;;;10.30;73.20;;;;;;5074267;28;20122;-65
2023/10/18 00:50:41;;;;;;;15.82;10.95;;;10.30;73.20;;;;;;5087956;28;20085;-65
2023/10/18 00:53:08;;;;;;;14.35;9.82;;;10.30;73.20;;;;;;5087232;28;20031;-65
2023/10/18 00:55:34;;;;;;;17.42;11.40;;;10.20;73.20;;;;;;5077489;28;20021;-64
2023/10/18 00:58:08;;;;;;;17.83;10.77;;;10.30;73.20;;;;;;5088177;28;20020;-64
2023/10/18 01:00:40;;;;;;;15.18;9.98;;;10.20;73.10;;;;;;5085379;28;20115;-65
2023/10/18 01:03:15;;;;;;;15.43;9.52;;;10.20;73.80;;;;;;5084654;28;20715;-65
2023/10/18 01:05:59;;;;;;;14.30;9.50;;;10.20;73.10;;;;;;5084676;28;20042;-65
2023/10/18 01:08:27;;;;;;;13.60;9.85;;;10.30;73.10;;;;;;5086969;28;20058;-64
2023/10/18 01:10:53;;;;;;;16.98;11.25;;;10.20;73.10;;;;;;5088064;28;20602;-65
2023/10/18 01:13:20;;;;;;;16.35;10.98;;;10.20;73.20;;;;;;5091767;28;20107;-65
2023/10/18 01:15:48;;;;;;;16.23;10.38;;;10.20;73.20;;;;;;5091274;28;20098;-64
2023/10/18 01:18:14;;;;;;;17.85;11.35;;;10.20;73.20;;;;;;5090835;28;20436;-64
2023/10/18 01:20:40;;;;;;;16.35;10.35;;;10.20;73.20;;;;;;5074584;28;20115;-64
2023/10/18 01:23:10;;;;;;;16.25;10.43;;;10.20;73.20;;;;;;5087182;28;20357;-65
2023/10/18 01:25:36;;;;;;;15.45;10.50;;;10.20;73.20;;;;;;5090872;28;20060;-64
2023/10/18 01:28:02;;;;;;;14.27;9.70;;;10.20;73.10;;;;;;5088355;28;20074;-64
2023/10/18 01:30:29;;;;;;;15.25;10.93;;;10.20;73.10;;;;;;5072754;28;20027;-64
2023/10/18 01:32:55;;;;;;;18.20;11.02;;;10.20;73.10;;;;;;5088283;28;20066;-65
2023/10/18 01:35:21;;;;;;;14.88;10.27;;;10.20;73.00;;;;;;5087941;28;20028;-65
2023/10/18 01:37:49;;;;;;;15.35;10.63;;;10.20;73.00;;;;;;5072143;28;20028;-65
2023/10/18 01:40:22;;;;;;;16.50;11.15;;;10.20;73.70;;;;;;5071131;28;20027;-65
2023/10/18 01:42:58;;;;;;;14.65;10.18;;;10.20;73.00;;;;;;5091274;28;20170;-65
2023/10/18 01:45:37;;;;;;;14.50;9.45;;;10.10;72.90;;;;;;5088529;28;20035;-65
2023/10/18 01:48:06;;;;;;;14.70;10.20;;;10.10;73.00;;;;;;5085857;28;20020;-64
2023/10/18 01:50:32;;;;;;;15.45;10.25;;;10.10;73.00;;;;;;5071090;28;20033;-65
2023/10/18 01:53:00;;;;;;;15.10;10.25;;;10.10;73.00;;;;;;5089394;28;20024;-64
2023/10/18 01:55:28;;;;;;;16.85;10.30;;;10.10;73.10;;;;;;5072786;28;20451;-65
2023/10/18 01:57:53;;;;;;;15.98;10.30;;;10.10;73.10;;;;;;5087441;28;20035;-65
2023/10/18 02:00:19;;;;;;;15.50;9.30;;;10.00;73.00;;;;;;5088519;28;20024;-65
2023/10/18 02:02:48;;;;;;;15.07;10.02;;;10.10;73.10;;;;;;5089475;28;20098;-65
2023/10/18 02:05:16;;;;;;;17.13;9.82;;;10.10;73.10;;;;;;5089245;28;20035;-64
2023/10/18 02:07:46;;;;;;;14.18;9.57;;;10.00;73.00;;;;;;5096511;28;20058;-64
2023/10/18 02:10:21;;;;;;;17.08;10.68;;;10.00;73.10;;;;;;5088764;28;20024;-64
2023/10/18 02:12:47;;;;;;;17.70;11.05;;;10.00;73.00;;;;;;5071233;28;20353;-64
2023/10/18 02:15:12;;;;;;;14.75;9.73;;;10.00;73.10;;;;;;5070177;28;20433;-65
2023/10/18 02:17:39;;;;;;;17.20;11.05;;;10.00;73.10;;;;;;5086504;28;20030;-65
2023/10/18 02:20:25;;;;;;;14.95;9.73;;;10.00;73.10;;;;;;5086310;28;20578;-65
2023/10/18 02:22:54;;;;;;;15.25;9.75;;;10.00;73.00;;;;;;5088501;28;20020;-65
2023/10/18 02:28:08;;;;;;;15.15;9.90;;;10.00;73.00;;;;;;5087058;28;20032;-64
2023/10/18 02:30:36;;;;;;;16.38;9.95;;;9.90;73.00;;;;;;5088211;28;20024;-65
2023/10/18 02:33:02;;;;;;;15.80;9.90;;;9.90;73.10;;;;;;5089033;28;20153;-65
2023/10/18 02:35:29;;;;;;;16.52;10.68;;;9.90;73.10;;;;;;5077291;28;20025;-64
2023/10/18 02:37:55;;;;;;;15.45;9.77;;;9.90;73.10;;;;;;5070881;28;20059;-65
2023/10/18 02:40:29;;;;;;;17.02;10.55;;;9.90;73.10;;;;;;5087387;28;20028;-65
2023/10/18 02:42:58;;;;;;;17.13;11.45;;;9.90;73.00;;;;;;5088470;28;20478;-65
2023/10/18 02:45:24;;;;;;;15.82;11.10;;;9.90;73.00;;;;;;5089241;28;20347;-65
2023/10/18 02:47:53;;;;;;;14.68;9.95;;;9.90;73.00;;;;;;5088768;28;20391;-65
2023/10/18 02:50:19;;;;;;;16.00;10.20;;;9.90;73.10;;;;;;5087665;28;20036;-65
2023/10/18 02:52:47;;;;;;;17.63;10.70;;;9.90;73.10;;;;;;5089111;28;20119;-64
2023/10/18 02:55:17;;;;;;;15.90;10.13;;;9.80;73.00;;;;;;5088233;28;20355;-64
2023/10/18 02:57:46;;;;;;;15.88;10.77;;;9.80;73.70;;;;;;5087967;28;20082;-64
2023/10/18 03:00:20;;;;;;;15.85;10.82;;;9.80;73.00;;;;;;5087898;28;20028;-64
2023/10/18 03:02:46;;;;;;;18.05;11.18;;;9.80;73.10;;;;;;5088586;28;20369;-64
2023/10/18 03:05:11;;;;;;;13.60;9.85;;;9.80;73.10;;;;;;5089108;28;20032;-64
2023/10/18 03:07:37;;;;;;;14.15;9.63;;;9.80;73.10;;;;;;5087456;28;20031;-65
2023/10/18 03:10:17;;;;;;;14.45;10.20;;;9.80;73.10;;;;;;5073136;28;20028;-65
2023/10/18 03:12:44;;;;;;;16.50;9.80;;;9.80;73.00;;;;;;5087025;28;20115;-64
2023/10/18 03:15:17;;;;;;;16.67;10.93;;;9.80;72.90;;;;;;5087613;28;20123;-64
2023/10/18 03:17:43;;;;;;;14.65;9.70;;;9.70;72.80;;;;;;5071690;28;20436;-64
2023/10/18 03:20:20;;;;;;;15.95;10.35;;;9.80;72.90;;;;;;5087376;28;20031;-65
2023/10/18 03:22:48;;;;;;;15.02;9.88;;;9.70;72.90;;;;;;5087568;28;20035;-65
2023/10/18 03:25:16;;;;;;;16.88;10.65;;;9.70;73.00;;;;;;5086529;28;20043;-65
2023/10/18 03:27:49;;;;;;;17.13;10.30;;;9.70;73.00;;;;;;5079237;28;20136;-65
2023/10/18 03:30:20;;;;;;;14.93;9.77;;;9.70;73.00;;;;;;5069612;28;20020;-65
2023/10/18 03:32:55;;;;;;;16.73;10.48;;;9.70;72.90;;;;;;5088158;28;20024;-65
2023/10/18 03:35:22;;;;;;;19.00;10.73;;;9.70;72.90;;;;;;5086581;28;20603;-64
2023/10/18 03:37:48;;;;;;;17.25;11.23;;;9.70;72.90;;;;;;5086530;28;20043;-65
2023/10/18 03:40:20;;;;;;;15.95;10.82;;;9.60;72.80;;;;;;5085780;28;20036;-64
2023/10/18 03:42:50;;;;;;;14.77;10.35;;;9.60;72.90;;;;;;5085545;28;20027;-64
2023/10/18 03:45:33;;;;;;;16.40;10.43;;;9.60;73.00;;;;;;5069460;28;20031;-64
2023/10/18 03:47:59;;;;;;;15.90;9.98;;;9.60;73.00;;;;;;5087261;28;20050;-65
2023/10/18 03:51:00;;;;;;;16.05;10.65;;;9.60;72.90;;;;;;5086561;28;20100;-64
2023/10/18 03:53:18;;;;;;;15.90;10.23;;;9.60;72.90;;;;;;5073151;28;20464;-64
2023/10/18 03:55:45;;;;;;;15.98;9.88;;;9.60;72.90;;;;;;5087128;28;20020;-65
2023/10/18 03:58:17;;;;;;;15.00;10.05;;;9.60;72.90;;;;;;5064137;28;20032;-64
2023/10/18 04:00:54;;;;;;;;;;;9.60;72.90;;;;;;5087379;28;20020;-64
2023/10/18 04:03:20;;;;;;;16.50;10.30;;;9.50;72.90;;;;;;5086908;28;19912;-65
2023/10/18 04:05:49;;;;;;;15.57;10.32;;;9.50;73.60;;;;;;5086178;28;20020;-64
2023/10/18 04:08:16;;;;;;;15.77;10.80;;;9.50;73.00;;;;;;5087533;28;20089;-64
2023/10/18 04:10:43;;;;;;;16.67;10.77;;;9.50;73.00;;;;;;5084569;28;20077;-65
2023/10/18 04:13:13;;;;;;;18.55;11.15;;;9.50;72.90;;;;;;5084132;28;20457;-64
2023/10/18 04:15:45;;;;;;;17.83;11.30;;;9.50;73.00;;;;;;5085166;28;20024;-64
2023/10/18 04:18:12;;;;;;;14.38;9.73;;;9.50;73.00;;;;;;5087386;28;20081;-64
2023/10/18 04:20:42;;;;;;;16.73;10.90;;;9.50;73.00;;;;;;5086419;28;20463;-64
2023/10/18 04:23:26;;;;;;;17.43;11.17;;;9.50;73.10;;;;;;5073855;28;20099;-65
2023/10/18 04:26:01;;;;;;;18.05;11.32;;;9.50;73.00;;;;;;5087174;28;20062;-65
2023/10/18 04:28:31;;;;;;;17.15;10.35;;;9.50;73.00;;;;;;5085122;28;20029;-64
2023/10/18 04:30:59;;;;;;;16.77;11.02;;;9.40;73.00;;;;;;5086443;28;20035;-65
2023/10/18 04:33:52;;;;;;;16.48;10.43;;;9.40;73.10;;;;;;5085667;28;20020;-65
2023/10/18 04:36:16;;;;;;;17.23;11.35;;;9.40;73.80;;;;;;5092653;28;20024;-64
2023/10/18 04:38:44;;;;;;;19.50;11.65;;;9.40;73.10;;;;;;5070686;28;20498;-64
2023/10/18 04:41:23;;;;;;;14.93;10.85;;;9.40;73.10;;;;;;5074073;28;20024;-65
2023/10/18 04:44:11;;;;;;;18.40;10.38;;;9.40;73.10;;;;;;5078934;28;20107;-65
2023/10/18 04:46:37;;;;;;;21.77;10.55;;;9.40;73.10;;;;;;5089234;28;20517;-64
2023/10/18 04:54:18;;;;;;;15.50;9.80;;;9.40;73.10;;;;;;5090345;28;20020;-64
2023/10/18 04:56:45;;;;;;;17.60;10.85;;;9.40;73.10;;;;;;5089128;28;20035;-64
2023/10/18 05:04:24;;;;;;;17.33;10.80;;;9.40;73.10;;;;;;5087552;28;20028;-64
2023/10/18 05:07:00;;;;;;;16.70;10.35;;;9.40;73.00;;;;;;5087903;28;20028;-64
2023/10/18 05:09:43;;;;;;;17.30;11.40;;;9.40;73.00;;;;;;5087231;28;20051;-64
2023/10/18 05:14:42;;;;;;;15.40;10.27;;;9.40;73.00;;;;;;5088457;28;20365;-64
2023/10/18 05:17:16;;;;;;;16.70;10.82;;;9.40;73.10;;;;;;5087466;28;20023;-64
2023/10/18 05:19:42;;;;;;;18.60;10.65;;;9.40;73.10;;;;;;5073833;28;20134;-64
2023/10/18 05:22:09;;;;;;;17.27;10.93;;;9.40;73.10;;;;;;5088539;28;20111;-63
2023/10/18 05:24:38;;;;;;;15.43;10.23;;;9.40;73.10;;;;;;5088569;28;20079;-64
2023/10/18 05:27:19;;;;;;;17.08;10.55;;;9.40;73.10;;;;;;5087996;28;20039;-64
2023/10/18 05:29:54;;;;;;;14.65;9.68;;;9.40;73.10;;;;;;5088333;28;20095;-64
2023/10/18 05:32:47;;;;;;;17.83;11.52;;;9.40;73.10;;;;;;5090529;28;20036;-64
2023/10/18 05:35:21;;;;;;;15.65;10.60;;;9.30;73.00;;;;;;5088169;28;20020;-64
2023/10/18 05:37:50;;;;;;;17.05;10.30;;;9.30;73.10;;;;;;5092053;28;20452;-64
2023/10/18 05:43:03;;;;;;;17.52;10.65;;;9.30;73.10;;;;;;5090954;28;20043;-64
2023/10/18 05:45:33;;;;;;;15.27;10.65;;;9.30;73.10;;;;;;5071198;28;20031;-64
2023/10/18 05:48:40;;;;;;;21.27;11.98;;;9.30;73.10;;;;;;5085122;28;20032;-65
2023/10/18 05:51:03;;;;;;;15.20;9.73;;;9.30;73.10;;;;;;5085186;28;20482;-64
2023/10/18 05:53:30;;;;;;;15.82;10.38;;;9.30;73.10;;;;;;5104225;28;20028;-65
2023/10/18 05:55:57;;;;;;;15.30;10.30;;;9.30;73.10;;;;;;5090222;28;20031;-64
2023/10/18 05:58:25;;;;;;;15.73;9.98;;;9.30;73.10;;;;;;5074607;28;20408;-65
2023/10/18 06:00:55;;;;;;;14.20;9.80;;;9.30;73.00;;;;;;5090527;28;20085;-65
2023/10/18 06:03:22;;;;;;;15.70;9.73;;;9.30;73.00;;;;;;5087895;28;20032;-64
2023/10/18 06:05:51;;;;;;;17.40;10.27;;;9.30;73.00;;;;;;5090256;28;20024;-64
2023/10/18 06:08:22;;;;;;;15.02;10.18;;;9.30;73.00;;;;;;5087705;28;20136;-65
2023/10/18 06:10:53;;;;;;;15.53;9.43;;;9.30;73.00;;;;;;5088756;28;20456;-66
2023/10/18 06:13:22;;;;;;;15.63;9.88;;;9.30;73.10;;;;;;5089894;28;20278;-66
2023/10/18 06:15:50;;;;;;;15.95;10.50;;;9.30;73.10;;;;;;5089104;28;20059;-66
2023/10/18 06:18:37;;;;;;;14.75;9.13;;;9.30;73.10;;;;;;5072184;28;20081;-66
2023/10/18 06:21:11;;;;;;;14.07;9.75;;;9.40;73.10;;;;;;5089505;28;20024;-65
2023/10/18 06:23:37;;;;;;;15.90;10.00;;;9.40;72.90;;;;;;5086725;28;20044;-65
2023/10/18 06:29:08;;;;;;;17.02;9.98;;;9.40;72.70;;;;;;5045394;28;20056;-65
2023/10/18 06:31:40;;;;;;;16.98;10.25;;;9.40;72.70;;;;;;5089547;28;20212;-65
2023/10/18 06:34:10;;;;;;;16.45;10.93;;;9.40;72.70;;;;;;5088098;28;20047;-65
2023/10/18 06:36:39;;;;;;;14.93;10.27;;;9.50;72.70;;;;;;5086670;28;20028;-66
2023/10/18 06:39:07;;;;;;;14.30;10.13;;;9.50;72.60;;;;;;5087999;28;20099;-66
2023/10/18 06:41:33;;;;;;;17.23;10.65;;;9.50;72.60;;;;;;5085860;28;20345;-65
2023/10/18 06:43:59;;;;;;;15.90;10.27;;;9.50;72.60;;;;;;5071484;28;20035;-66
2023/10/18 06:46:30;;;;;;;16.13;10.43;;;9.50;72.40;;;;;;5087586;28;20043;-65
2023/10/18 06:48:57;;;;;;;15.73;10.20;;;9.50;72.40;;;;;;5087112;28;20030;-65
2023/10/18 06:51:33;;;;;;;15.27;9.88;;;9.50;72.40;;;;;;5078859;28;20039;-65
2023/10/18 06:54:03;;;;;;;15.23;10.05;;;9.50;72.50;;;;;;5088708;28;20028;-65
2023/10/18 06:56:32;;;;;;;15.82;9.90;;;9.50;72.40;;;;;;5078563;28;20098;-65
2023/10/18 06:59:04;;;;;;;15.95;10.00;;;9.50;72.40;;;;;;5087988;28;20036;-65
2023/10/18 07:01:42;;;;;;;15.70;10.00;;;9.50;72.40;;;;;;5088536;28;20413;-73
2023/10/18 07:04:18;;;;;;;17.02;10.68;;;9.60;72.30;;;;;;5085565;28;20495;-65
2023/10/18 07:06:44;;;;;;;14.02;8.98;;;9.60;72.90;;;;;;5086115;28;20039;-65
2023/10/18 07:09:31;;;;;;;17.15;10.50;;;9.60;72.20;;;;;;5090042;28;20068;-67
2023/10/18 07:11:57;;;;;;;14.85;9.85;;;9.60;72.10;;;;;;5088607;28;20343;-65
2023/10/18 07:14:24;;;;;;;15.82;9.70;;;9.60;72.10;;;;;;5072746;28;20020;-65
2023/10/18 07:16:54;;;;;;;16.52;9.35;;;9.60;72.10;;;;;;5087328;28;20028;-65
2023/10/18 07:19:25;;;;;;;16.15;9.68;;;9.70;72.00;;;;;;5104569;27;20084;-66
2023/10/18 07:21:52;;;;;;;15.93;10.63;;;9.70;71.90;;;;;;5086007;28;20475;-70
2023/10/18 07:24:18;;;;;;;16.48;9.70;;;9.70;71.90;;;;;;5086467;28;20055;-65
2023/10/18 07:26:46;;;;;;;16.48;9.63;;;9.80;71.90;;;;;;5087543;28;20024;-66
2023/10/18 07:29:13;;;;;;;14.75;9.40;;;9.80;71.80;;;;;;5084247;28;20075;-67
2023/10/18 07:31:44;;;;;;;15.05;9.65;;;9.80;71.70;;;;;;5089016;28;20414;-66
2023/10/18 07:34:17;;;;;;;14.23;9.13;;;9.80;71.70;;;;;;5088659;28;20024;-66
2023/10/18 07:36:44;;;;;;;16.77;9.10;;;9.80;71.60;;;;;;5086471;28;20040;-65
2023/10/18 07:39:16;;;;;;;12.88;8.93;;;9.90;71.60;;;;;;5087796;28;20102;-66
2023/10/18 07:41:46;;;;;;;14.60;9.40;;;9.90;71.50;;;;;;5091061;28;20031;-65
2023/10/18 07:44:12;;;;;;;14.00;8.68;;;9.90;71.40;;;;;;5087870;28;20044;-65
2023/10/18 07:46:40;;;;;;;13.68;8.75;;;9.90;71.30;;;;;;5087524;28;20109;-66
2023/10/18 07:49:14;;;;;;;15.63;8.35;;;10.00;71.30;;;;;;5077684;28;20348;-66
2023/10/18 07:51:49;;;;;;;14.98;8.77;;;10.00;71.10;;;;;;5086799;28;20432;-66
2023/10/18 07:54:20;;;;;;;13.95;8.57;;;10.00;70.90;;;;;;5071364;28;20039;-66
2023/10/18 07:56:49;;;;;;;12.85;7.90;;;10.00;70.90;;;;;;5084823;28;20029;-68
2023/10/18 07:59:28;;;;;;;13.25;8.80;;;10.00;70.80;;;;;;5085046;28;20020;-67
2023/10/18 08:04:44;;;;;;;15.60;9.50;;;10.10;70.70;;;;;;5084765;28;21507;-67
2023/10/18 08:07:15;;;;;;;13.77;8.75;;;10.10;70.60;;;;;;5086539;28;20020;-67
2023/10/18 08:09:44;;;;;;;13.95;8.32;;;10.20;70.70;;;;;;5084667;28;20028;-67
2023/10/18 08:12:28;;;;;;;12.80;8.45;;;10.20;70.60;;;;;;5065306;28;20032;-66
2023/10/18 08:14:54;;;;;;;14.35;8.75;;;10.20;70.50;;;;;;5086056;28;20070;-66
2023/10/18 08:22:52;;;;;;;12.35;7.93;;;10.30;70.30;;;;;;5078633;28;20044;-66
2023/10/18 08:25:29;;;;;;;13.95;8.60;;;10.30;70.20;;;;;;5090377;28;20514;-67
2023/10/18 08:27:56;;;;;;;13.85;7.40;;;10.40;70.20;;;;;;5089994;28;20042;-67
2023/10/18 08:30:38;;;;;;;15.02;9.25;;;10.50;70.10;;;;;;5064413;28;20063;-67
2023/10/18 08:33:07;;;;;;;13.35;8.73;;;10.50;69.90;;;;;;5091242;28;20472;-67
2023/10/18 08:35:34;;;;;;;14.30;8.55;;;10.60;69.80;;;;;;5090273;28;20054;-67
2023/10/18 08:38:01;;;;;;;12.68;8.02;;;10.60;69.70;;;;;;5094172;28;20020;-67
2023/10/18 08:40:28;;;;;;;13.90;8.45;;;10.70;69.60;;;;;;5096123;28;20107;-67
2023/10/18 08:43:23;;;;;;;12.70;8.05;;;10.80;69.50;;;;;;5099225;28;20081;-67
2023/10/18 08:45:50;;;;;;;11.63;7.63;;;10.80;69.40;;;;;;5117220;28;20512;-67
2023/10/18 08:48:17;;;;;;;11.80;7.22;;;10.90;69.20;;;;;;5083489;28;20036;-68
2023/10/18 08:50:45;;;;;;;12.68;8.20;;;11.00;69.20;;;;;;5082713;28;20054;-66
2023/10/18 08:53:15;;;;;;;13.30;7.50;;;11.00;68.90;;;;;;5090917;28;20073;-67
2023/10/18 08:55:45;;;;;;;14.05;8.38;;;11.10;68.90;;;;;;5104313;28;20112;-66
2023/10/18 08:58:17;;;;;;;12.10;7.75;;;11.20;68.70;;;;;;5091985;28;20437;-67
2023/10/18 09:03:17;;;;;;;11.77;7.18;;;11.40;68.10;;;;;;5098051;28;20095;-67
2023/10/18 09:05:43;;;;;;;12.18;7.45;;;11.50;67.90;;;;;;5112061;28;20031;-68
2023/10/18 09:08:19;;;;;;;14.80;7.70;;;11.60;68.30;;;;;;5102909;28;20061;-67
2023/10/18 09:10:54;;;;;;;10.75;7.05;;;11.70;67.40;;;;;;5115367;28;20035;-67
2023/10/18 09:15:49;;;;;;;11.38;6.88;;;11.90;67.00;;;;;;5117711;28;20119;-67
2023/10/18 09:18:16;;;;;;;11.60;6.65;;;12.00;66.70;;;;;;5078927;28;20081;-67
2023/10/18 09:20:42;;;;;;;14.15;7.30;;;12.20;66.50;;;;;;5109102;28;20455;-67
2023/10/18 09:23:14;;;;;;;11.38;6.97;;;12.30;66.20;;;;;;5116549;28;20031;-67
2023/10/18 09:25:50;;;;;;;13.18;6.68;;;12.50;65.80;;;;;;5116554;28;20075;-67
2023/10/18 09:28:25;;;;;;;11.10;6.40;;;12.70;65.40;;;;;;5109408;28;20024;-67
2023/10/18 09:31:28;;;;;;;11.52;6.70;;;12.80;65.00;;;;;;5079809;28;20035;-67
2023/10/18 09:33:58;;;;;;;10.55;6.68;;;12.90;64.80;;;;;;5081192;28;20063;-67
2023/10/18 09:36:24;;;;;;;11.13;6.50;;;13.10;64.70;;;;;;5114674;28;20432;-68
2023/10/18 09:38:57;;;;;;;10.95;5.55;;;13.20;64.40;;;;;;5103107;28;20027;-67
2023/10/18 09:41:27;;;;;;;11.38;6.07;;;13.30;64.00;;;;;;5099241;28;20019;-67
2023/10/18 09:43:52;;;;;;;9.75;6.18;;;13.40;64.40;;;;;;5116105;28;20416;-67
2023/10/18 09:46:19;;;;;;;9.98;5.50;;;13.60;63.50;;;;;;5102808;28;20218;-65
2023/10/18 09:48:48;;;;;;;10.40;6.10;;;13.60;63.20;;;;;;5104906;28;20115;-65
2023/10/18 09:51:15;;;;;;;10.80;5.47;;;13.70;63.00;;;;;;5104020;28;20120;-65
2023/10/18 09:53:51;;;;;;;9.95;5.88;;;13.70;62.90;;;;;;5116308;28;20032;-65
2023/10/18 09:56:37;;;;;;;10.30;6.10;;;13.70;62.70;;;;;;5116103;28;20390;-65
2023/10/18 09:59:05;;;;;;;11.25;6.43;;;13.60;62.70;;;;;;5076999;28;20024;-65
2023/10/18 10:04:14;;;;;;;9.45;5.07;;;13.50;62.90;;;;;;5117333;28;20056;-67
2023/10/18 10:06:47;;;;;;;11.13;6.15;;;13.50;62.90;;;;;;5115458;28;20023;-67
2023/10/18 10:09:14;;;;;;;9.60;5.93;;;13.50;62.90;;;;;;5107929;28;20062;-67
2023/10/18 10:11:43;;;;;;;11.23;6.30;;;13.50;62.70;;;;;;5116165;27;20144;-67
2023/10/18 10:14:10;;;;;;;11.25;5.63;;;13.50;62.70;;;;;;5116612;28;20031;-67
2023/10/18 10:16:39;;;;;;;9.13;5.70;;;13.50;62.70;;;;;;5116486;28;20051;-67
2023/10/18 10:19:11;;;;;;;9.20;5.22;;;13.50;62.70;;;;;;5098988;28;20516;-67
2023/10/18 10:21:38;;;;;;;10.23;5.40;;;13.50;62.40;;;;;;5101305;28;20127;-65
2023/10/18 10:24:29;;;;;;;9.70;5.45;;;13.60;62.50;;;;;;5114784;28;20044;-65
2023/10/18 10:27:13;;;;;;;10.70;5.13;;;13.60;62.20;;;;;;5109188;28;20032;-65
2023/10/18 10:29:56;;;;;;;9.20;4.72;;;13.60;62.30;;;;;;5085440;28;20433;-65
2023/10/18 10:32:23;;;;;;;9.57;5.95;;;13.70;62.10;;;;;;5101542;28;20028;-65
2023/10/18 10:35:08;;;;;;;9.77;5.22;;;13.70;62.10;;;;;;5095083;28;20039;-65
2023/10/18 10:37:34;;;;;;;9.20;5.20;;;13.80;62.00;;;;;;5101283;28;20461;-64
2023/10/18 10:40:19;;;;;;;8.73;4.82;;;14.00;61.90;;;;;;5085505;28;20068;-65
2023/10/18 10:42:49;;;;;;;7.47;4.40;;;14.20;61.50;;;;;;5103491;28;20028;-64
2023/10/18 10:45:32;;;;;;;10.68;5.80;;;14.40;61.10;;;;;;5089104;28;20071;-63
2023/10/18 10:53:57;;;;;;;8.40;4.63;;;14.70;60.50;;;;;;5087311;28;20024;-64
2023/10/18 10:56:31;;;;;;;9.60;4.97;;;14.70;60.30;;;;;;5086083;28;20325;-63
2023/10/18 10:59:04;;;;;;;9.10;5.05;;;14.90;60.30;;;;;;5087107;28;20020;-63
2023/10/18 11:04:46;;;;;;;8.60;5.20;;;15.00;59.60;;;;;;5078940;28;20035;-65
2023/10/18 11:07:13;;;;;;;8.65;4.75;;;15.20;59.60;;;;;;5086247;28;20028;-65
2023/10/18 11:09:42;;;;;;;8.82;4.80;;;15.20;59.40;;;;;;5086965;28;20024;-65
2023/10/18 11:12:10;;;;;;;12.05;5.60;;;15.30;59.00;;;;;;5086564;28;20032;-67
2023/10/18 11:14:37;;;;;;;9.55;5.18;;;15.40;59.00;;;;;;5068625;28;20046;-65
2023/10/18 11:19:43;;;;;;;9.40;4.57;;;15.40;58.60;;;;;;5086934;28;20039;-65
2023/10/18 11:22:13;;;;;;;8.68;4.75;;;15.40;58.70;;;;;;5088370;28;20635;-65
2023/10/18 11:24:39;;;;;;;8.60;5.22;;;15.40;58.60;;;;;;5077617;28;20344;-65
2023/10/18 11:27:09;;;;;;;8.88;4.68;;;15.30;58.40;;;;;;5087826;28;20039;-66
2023/10/18 11:29:41;;;;;;;9.95;4.75;;;15.30;58.50;;;;;;5087790;28;20036;-65
2023/10/18 11:32:15;;;;;;;9.07;4.63;;;15.30;58.50;;;;;;5085500;28;20114;-65
2023/10/18 11:34:44;;;;;;;9.63;5.05;;;15.20;58.40;;;;;;5084910;28;20024;-65
2023/10/18 11:37:13;;;;;;;8.38;4.88;;;15.20;58.50;;;;;;5086803;28;20016;-65
2023/10/18 11:39:42;;;;;;;8.77;4.65;;;15.20;58.40;;;;;;5087205;28;20028;-65
2023/10/18 11:42:10;;;;;;;7.90;4.75;;;15.20;58.30;;;;;;5087469;28;20016;-65
2023/10/18 11:44:39;;;;;;;9.90;5.22;;;15.20;58.30;;;;;;5078396;28;20094;-64
2023/10/18 11:47:12;;;;;;;9.15;4.75;;;15.10;58.40;;;;;;5078474;28;20032;-63
2023/10/18 11:49:39;;;;;;;10.13;4.80;;;15.10;58.30;;;;;;5082825;28;20020;-65
2023/10/18 11:52:12;;;;;;;8.60;5.13;;;15.10;58.40;;;;;;5079543;28;20028;-63
2023/10/18 11:54:38;;;;;;;8.13;4.10;;;15.10;59.00;;;;;;5081459;28;20383;-64
2023/10/18 11:57:22;;;;;;;8.70;4.50;;;15.20;58.30;;;;;;5093291;28;20020;-64
2023/10/18 11:59:56;;;;;;;10.00;4.85;;;15.20;58.20;;;;;;5099231;28;20371;-64
2023/10/18 12:02:30;;;;;;;8.10;4.10;;;15.20;58.10;;;;;;5071068;28;20089;-67
2023/10/18 12:04:57;;;;;;;8.90;4.65;;;15.20;58.10;;;;;;5091785;28;20074;-67
2023/10/18 12:07:24;;;;;;;9.52;4.93;;;15.20;58.20;;;;;;5093456;28;20034;-67
2023/10/18 12:09:53;;;;;;;9.40;5.05;;;15.20;58.30;;;;;;5075928;28;20093;-67
2023/10/18 12:12:19;;;;;;;8.98;5.28;;;15.10;58.20;;;;;;5099930;28;20019;-67
2023/10/18 12:14:46;;;;;;;7.85;4.45;;;15.10;58.10;;;;;;5104829;28;20036;-67
2023/10/18 12:17:13;;;;;;;7.80;4.60;;;15.10;58.20;;;;;;5095674;28;20016;-66
2023/10/18 12:19:40;;;;;;;8.38;4.50;;;15.10;58.10;;;;;;5095936;28;20027;-67
2023/10/18 12:22:09;;;;;;;8.68;4.35;;;15.10;58.00;;;;;;5096458;28;20036;-67
2023/10/18 12:24:36;;;;;;;7.93;4.82;;;15.10;58.00;;;;;;5114404;28;20079;-67
2023/10/18 12:27:20;;;;;;;8.82;4.97;;;15.10;58.10;;;;;;5106314;28;20028;-67
2023/10/18 12:29:45;;;;;;;8.05;4.75;;;15.10;58.00;;;;;;5113507;28;20023;-67
2023/10/18 12:32:25;;;;;;;8.90;4.88;;;15.10;58.00;;;;;;5113537;28;20089;-67
2023/10/18 12:34:56;;;;;;;9.82;5.05;;;15.10;58.00;;;;;;5113936;28;20313;-67
2023/10/18 12:37:26;;;;;;;7.55;4.35;;;15.10;58.00;;;;;;5109524;28;20036;-67
2023/10/18 12:39:57;;;;;;;7.45;4.35;;;15.10;58.10;;;;;;5114546;28;20437;-67
2023/10/18 12:42:25;;;;;;;10.55;5.13;;;15.10;58.10;;;;;;5114615;28;20034;-65
2023/10/18 12:44:55;;;;;;;7.95;4.80;;;15.10;58.20;;;;;;5110777;28;20055;-64
2023/10/18 12:47:21;;;;;;;8.23;4.65;;;15.00;58.10;;;;;;5092321;28;20078;-65
2023/10/18 12:49:50;;;;;;;9.75;4.90;;;15.00;58.20;;;;;;5078332;28;20448;-64
2023/10/18 12:55:05;;;;;;;7.78;4.38;;;14.90;58.10;;;;;;5113915;28;20394;-65
2023/10/18 12:57:34;;;;;;;8.05;4.32;;;14.90;58.20;;;;;;5095539;28;20020;-65
2023/10/18 13:00:13;;;;;;;8.10;4.45;;;14.90;58.30;;;;;;5088435;28;20039;-64
2023/10/18 13:02:50;;;;;;;9.20;4.35;;;14.90;58.40;;;;;;5090629;28;20420;-64
2023/10/18 13:05:17;;;;;;;7.75;4.22;;;14.90;58.40;;;;;;5089768;28;20487;-64
2023/10/18 13:07:45;;;;;;;10.48;5.00;;;14.80;58.40;;;;;;5113886;28;20440;-66
2023/10/18 13:10:12;;;;;;;11.27;5.03;;;14.80;58.50;;;;;;5098331;28;20032;-67
2023/10/18 13:12:44;;;;;;;8.65;4.65;;;14.80;58.60;;;;;;5104828;28;20059;-67
2023/10/18 13:15:11;;;;;;;10.23;5.30;;;14.80;58.80;;;;;;5103776;28;20059;-67
2023/10/18 13:17:36;;;;;;;8.52;5.00;;;14.80;58.70;;;;;;5083633;28;20135;-67
2023/10/18 13:20:06;;;;;;;8.75;4.25;;;14.70;58.80;;;;;;5079540;28;20119;-67
2023/10/18 13:22:34;;;;;;;8.60;4.43;;;14.70;58.80;;;;;;5094694;28;20115;-67
2023/10/18 13:25:08;;;;;;;8.85;4.65;;;14.70;58.80;;;;;;5093707;28;20047;-67
2023/10/18 13:27:38;;;;;;;9.35;4.63;;;14.70;58.90;;;;;;5093469;28;20028;-67
2023/10/18 13:33:11;;;;;;;8.15;4.22;;;14.70;59.00;;;;;;5045150;28;20039;-67
2023/10/18 13:35:39;;;;;;;7.32;4.07;;;14.70;59.20;;;;;;5049704;28;20392;-67
2023/10/18 13:38:05;;;;;;;8.48;4.43;;;14.70;59.10;;;;;;5074723;28;20048;-67
2023/10/18 13:40:36;;;;;;;8.27;4.22;;;14.70;59.10;;;;;;5097950;28;20122;-67
2023/10/18 13:43:07;;;;;;;;;;;14.70;59.10;;;;;;5085223;28;20033;-67
2023/10/18 13:45:37;;;;;;;9.02;3.35;;;14.80;59.20;;;;;;5089616;28;19908;-67
2023/10/18 13:48:03;;;;;;;8.73;4.75;;;14.80;59.30;;;;;;5093256;28;20076;-67
2023/10/18 13:50:35;;;;;;;7.53;3.90;;;14.80;59.20;;;;;;5094101;28;20411;-67
2023/10/18 13:53:01;;;;;;;8.30;4.38;;;14.80;59.40;;;;;;5070651;28;20020;-67
2023/10/18 13:55:26;;;;;;;7.43;4.15;;;14.80;59.40;;;;;;5073823;28;20361;-67